Time;durP1;ratioP1;P1;durP2;ratioP2;P2;SDS_P1;SDS_P2;PMS_P1;PMS_P2;Temp;Humidity;BMP_temperature;BMP_pressure;BME280_temperature;BME280_humidity;BME280_pressure;Samples;Min_cycle;Max_cycle;Signal;HPM_P1;HPM_P2
2023/08/04 00:02:57;;;;;;;7.70;2.60;;;15.10;99.90;;;;;;20657617;28;20481;-41
2023/08/04 00:12:57;;;;;;;8.32;2.95;;;14.90;99.90;;;;;;20655791;28;20056;-41
2023/08/04 00:22:58;;;;;;;9.77;3.20;;;14.90;99.90;;;;;;20651053;28;20102;-41
2023/08/04 00:32:59;;;;;;;7.03;2.90;;;14.90;99.90;;;;;;20656619;28;20066;-41
2023/08/04 00:43:00;;;;;;;7.63;3.30;;;14.90;99.90;;;;;;20647440;28;20064;-41
2023/08/04 00:53:02;;;;;;;9.55;2.83;;;15.00;99.90;;;;;;20648723;28;20060;-41
2023/08/04 01:03:03;;;;;;;9.05;2.90;;;15.10;99.90;;;;;;20652580;28;20041;-41
2023/08/04 01:13:05;;;;;;;7.32;2.95;;;15.10;99.90;;;;;;20665128;28;20084;-42
2023/08/04 01:23:05;;;;;;;8.90;3.30;;;15.20;99.90;;;;;;20664597;28;20155;-41
2023/08/04 01:33:06;;;;;;;6.93;3.10;;;15.20;99.90;;;;;;20672428;28;20049;-41
2023/08/04 01:43:06;;;;;;;7.57;3.22;;;15.20;99.90;;;;;;20674429;28;20037;-42
2023/08/04 01:53:07;;;;;;;9.40;3.30;;;15.10;99.90;;;;;;20674418;28;20065;-41
2023/08/04 02:03:08;;;;;;;7.22;3.30;;;15.00;99.90;;;;;;20666019;28;20277;-41
2023/08/04 02:13:08;;;;;;;8.35;3.13;;;14.90;99.90;;;;;;20669151;28;20442;-41
2023/08/04 02:23:09;;;;;;;7.90;3.20;;;14.90;99.90;;;;;;20663474;28;20485;-41
2023/08/04 02:33:09;;;;;;;11.70;3.33;;;14.90;99.90;;;;;;20663079;28;20786;-42
2023/08/04 02:43:10;;;;;;;7.47;3.37;;;15.00;99.90;;;;;;20667732;28;20095;-41
2023/08/04 02:53:10;;;;;;;8.55;3.28;;;15.10;99.90;;;;;;20676791;28;20056;-41
2023/08/04 03:03:11;;;;;;;10.77;3.65;;;15.20;99.90;;;;;;20659391;28;20060;-41
2023/08/04 03:13:11;;;;;;;7.13;3.67;;;15.30;99.90;;;;;;20672356;28;20089;-42
2023/08/04 03:23:12;;;;;;;10.88;4.20;;;15.30;99.90;;;;;;20664140;28;20453;-41
2023/08/04 03:33:13;;;;;;;9.32;3.80;;;15.30;99.90;;;;;;20654495;28;20562;-42
2023/08/04 03:43:13;;;;;;;8.18;4.25;;;15.40;99.90;;;;;;20662273;28;20057;-41
2023/08/04 03:53:14;;;;;;;7.97;4.13;;;15.50;99.90;;;;;;20663949;28;20611;-41
2023/08/04 04:03:14;;;;;;;8.68;3.60;;;15.50;99.90;;;;;;20661334;28;20291;-41
2023/08/04 04:13:15;;;;;;;9.57;3.97;;;15.50;99.90;;;;;;20656844;28;20144;-42
2023/08/04 04:23:15;;;;;;;8.88;4.10;;;15.50;99.90;;;;;;20652388;28;21162;-41
2023/08/04 04:33:16;;;;;;;11.02;4.53;;;15.50;99.90;;;;;;20658926;28;20629;-41
2023/08/04 04:43:16;;;;;;;9.18;4.75;;;15.70;99.90;;;;;;20665260;28;20177;-41
2023/08/04 04:53:17;;;;;;;14.27;3.63;;;15.80;99.90;;;;;;20661953;28;20049;-41
2023/08/04 05:03:17;;;;;;;8.57;3.90;;;15.70;99.90;;;;;;20670972;28;20060;-41
2023/08/04 05:13:18;;;;;;;7.57;4.07;;;15.70;99.90;;;;;;20674792;28;20330;-41
2023/08/04 05:23:19;;;;;;;7.13;4.07;;;15.70;99.90;;;;;;20667216;28;20036;-41
2023/08/04 05:33:19;;;;;;;8.30;4.10;;;15.70;99.90;;;;;;20671609;28;20471;-41
2023/08/04 05:43:20;;;;;;;5.40;3.88;;;15.80;99.90;;;;;;20657866;28;20042;-41
2023/08/04 05:53:21;;;;;;;7.38;3.60;;;15.70;99.90;;;;;;20694340;28;20073;-41
2023/08/04 06:03:21;;;;;;;7.10;4.17;;;15.80;99.90;;;;;;20648296;28;20037;-41
2023/08/04 06:13:22;;;;;;;7.00;3.33;;;15.90;99.90;;;;;;20664753;28;20050;-41
2023/08/04 06:23:22;;;;;;;5.13;2.75;;;16.00;99.90;;;;;;20674773;28;20183;-41
2023/08/04 06:33:23;;;;;;;7.03;3.60;;;16.20;99.90;;;;;;20680845;28;20094;-41
2023/08/04 06:43:23;;;;;;;6.32;3.08;;;16.40;99.90;;;;;;20674572;28;20046;-41
2023/08/04 06:53:24;;;;;;;4.70;2.38;;;16.50;99.90;;;;;;20679924;28;20490;-41
2023/08/04 07:03:24;;;;;;;7.50;2.50;;;16.60;99.90;;;;;;20676563;28;20418;-42
2023/08/04 07:13:25;;;;;;;7.80;2.70;;;16.80;99.90;;;;;;20668997;28;20050;-42
2023/08/04 07:23:25;;;;;;;7.30;2.88;;;17.00;99.90;;;;;;20676241;28;20057;-42
2023/08/04 07:33:27;;;;;;;6.45;2.50;;;17.00;99.90;;;;;;20670361;28;20042;-42
2023/08/04 07:43:27;;;;;;;5.85;2.40;;;16.90;99.90;;;;;;20676113;28;20467;-41
2023/08/04 07:53:28;;;;;;;6.40;2.28;;;16.80;99.90;;;;;;20675486;28;20048;-41
2023/08/04 08:03:28;;;;;;;6.40;2.40;;;16.80;99.90;;;;;;20672566;28;20713;-42
2023/08/04 08:13:29;;;;;;;4.95;2.53;;;16.80;99.90;;;;;;20668330;28;20073;-42
2023/08/04 08:23:29;;;;;;;5.55;2.58;;;16.80;99.90;;;;;;20672809;28;20438;-42
2023/08/04 08:33:30;;;;;;;6.60;2.60;;;16.60;99.90;;;;;;20675958;28;20121;-42
2023/08/04 08:43:31;;;;;;;6.20;2.40;;;16.40;99.90;;;;;;20693484;28;20043;-42
2023/08/04 08:53:32;;;;;;;9.30;3.13;;;16.70;99.90;;;;;;20691431;28;20061;-42
2023/08/04 09:03:38;;;;;;;7.78;2.38;;;17.30;99.90;;;;;;20686000;28;20052;-42
2023/08/04 09:13:41;;;;;;;7.28;2.25;;;18.00;99.90;;;;;;20676002;28;20631;-42
2023/08/04 09:23:46;;;;;;;6.70;2.00;;;18.70;26.70;;;;;;20680181;28;20037;-42
2023/08/04 09:33:46;;;;;;;4.35;1.80;;;19.10;1.00;;;;;;20685349;28;20368;-42
2023/08/04 09:43:49;;;;;;;3.65;1.15;;;18.60;1.00;;;;;;20678142;28;20042;-42
2023/08/04 09:53:54;;;;;;;5.00;1.23;;;18.90;1.00;;;;;;20683284;28;20461;-42
2023/08/04 10:03:57;;;;;;;3.70;0.90;;;20.00;1.00;;;;;;20685106;28;20061;-42
2023/08/04 10:13:58;;;;;;;4.55;1.00;;;20.20;1.00;;;;;;20682541;28;20117;-42
2023/08/04 10:23:59;;;;;;;2.33;0.90;;;20.20;1.00;;;;;;20705134;28;20042;-42
2023/08/04 10:34:18;;;;;;;3.45;0.70;;;20.40;1.00;;;;;;20707152;28;20042;-42
2023/08/04 10:44:18;;;;;;;4.25;1.20;;;20.30;1.00;;;;;;20685098;28;20082;-42
2023/08/04 10:54:19;;;;;;;2.15;0.88;;;20.00;1.00;;;;;;20664770;28;20046;-42
2023/08/04 11:04:20;;;;;;;4.80;0.93;;;20.20;1.00;;;;;;20664161;28;20315;-43
2023/08/04 11:14:21;;;;;;;2.03;0.68;;;20.30;1.00;;;;;;20618178;28;20065;-43
2023/08/04 11:24:25;;;;;;;4.38;0.70;;;19.70;1.00;;;;;;20678483;28;20042;-42
2023/08/04 11:34:28;;;;;;;2.42;0.77;;;20.20;1.00;;;;;;20652560;28;20052;-42
2023/08/04 11:44:29;;;;;;;1.52;0.77;;;20.20;1.00;;;;;;20660605;28;20832;-43
2023/08/04 11:54:30;;;;;;;2.50;0.80;;;20.30;1.00;;;;;;20653593;28;20038;-43
2023/08/04 12:04:31;;;;;;;2.33;1.27;;;20.80;1.00;;;;;;20662479;28;20052;-43
2023/08/04 12:14:31;;;;;;;4.10;1.00;;;21.10;1.00;;;;;;20667015;28;20060;-43
2023/08/04 12:24:33;;;;;;;6.20;1.80;;;21.10;1.00;;;;;;20664196;28;20046;-43
2023/08/04 12:34:33;;;;;;;2.10;0.90;;;21.40;1.00;;;;;;20665249;28;20161;-43
2023/08/04 12:44:34;;;;;;;2.65;1.00;;;21.50;1.00;;;;;;20639773;28;20045;-43
2023/08/04 12:54:34;;;;;;;5.80;1.10;;;20.80;1.00;;;;;;20635117;28;20042;-43
2023/08/04 13:04:35;;;;;;;1.98;0.80;;;20.50;1.00;;;;;;20645939;28;20045;-43
2023/08/04 13:14:36;;;;;;;2.05;0.70;;;20.20;1.00;;;;;;20636432;28;20180;-43
2023/08/04 13:24:36;;;;;;;2.38;0.73;;;21.10;1.00;;;;;;20654919;28;20046;-43
2023/08/04 13:34:37;;;;;;;2.28;0.85;;;21.20;1.00;;;;;;20609318;28;20049;-43
2023/08/04 13:44:37;;;;;;;3.78;0.88;;;21.00;1.00;;;;;;20648746;28;20306;-42
2023/08/04 13:54:38;;;;;;;3.00;0.80;;;20.90;1.00;;;;;;20641099;28;20052;-42
2023/08/04 14:04:38;;;;;;;2.33;0.85;;;21.20;1.00;;;;;;20649748;28;20076;-43
2023/08/04 14:14:39;;;;;;;2.97;0.80;;;20.50;1.00;;;;;;20659982;28;20046;-42
2023/08/04 14:24:40;;;;;;;3.28;0.90;;;20.20;1.00;;;;;;20640078;28;20452;-43
2023/08/04 14:34:40;;;;;;;2.60;0.70;;;20.60;1.00;;;;;;20658086;28;20053;-43
2023/08/04 14:44:41;;;;;;;2.03;0.52;;;20.50;1.00;;;;;;20628770;28;20065;-42
2023/08/04 14:54:41;;;;;;;1.65;0.57;;;20.30;1.00;;;;;;20657348;28;20077;-42
2023/08/04 15:04:43;;;;;;;2.30;0.60;;;20.30;1.00;;;;;;20613825;28;20049;-43
2023/08/04 15:14:44;;;;;;;1.92;0.45;;;20.00;1.00;;;;;;20560154;28;20054;-42
2023/08/04 15:24:45;;;;;;;2.65;0.60;;;20.20;1.00;;;;;;20608308;28;20980;-44
2023/08/04 15:34:46;;;;;;;3.33;0.63;;;19.80;1.00;;;;;;20644982;28;20049;-42
2023/08/04 15:44:47;;;;;;;2.08;0.60;;;20.20;1.00;;;;;;20653823;28;20080;-42
2023/08/04 15:54:48;;;;;;;1.83;0.50;;;19.80;1.00;;;;;;20619600;28;20481;-42
2023/08/04 16:04:51;;;;;;;2.20;0.60;;;19.60;1.00;;;;;;20639856;28;20496;-42
2023/08/04 16:14:52;;;;;;;4.63;1.10;;;19.40;1.00;;;;;;20685193;28;20315;-42
2023/08/04 16:24:53;;;;;;;4.35;1.33;;;19.40;1.00;;;;;;20687252;28;20128;-42
2023/08/04 16:34:53;;;;;;;2.95;1.13;;;19.80;1.00;;;;;;20688077;28;20049;-42
2023/08/04 16:44:54;;;;;;;2.95;1.20;;;20.00;1.00;;;;;;20690395;28;20034;-42
2023/08/04 16:54:55;;;;;;;2.40;1.13;;;20.10;1.00;;;;;;20696595;28;20346;-42
2023/08/04 17:04:56;;;;;;;2.30;1.20;;;19.70;1.00;;;;;;20696997;28;20439;-42
2023/08/04 17:14:57;;;;;;;3.43;1.20;;;19.50;1.00;;;;;;20664957;28;21090;-42
2023/08/04 17:24:57;;;;;;;5.67;1.57;;;19.40;1.00;;;;;;20668629;28;20092;-42
2023/08/04 17:34:58;;;;;;;4.87;1.37;;;19.30;1.00;;;;;;20692859;28;20046;-42
2023/08/04 17:44:58;;;;;;;4.38;1.20;;;19.40;1.00;;;;;;20669503;28;20501;-42
2023/08/04 17:54:59;;;;;;;3.33;0.80;;;19.40;1.00;;;;;;20666928;28;20065;-43
2023/08/04 18:04:59;;;;;;;4.10;1.17;;;19.30;1.00;;;;;;20649971;28;21527;-42
2023/08/04 18:15:00;;;;;;;3.60;1.50;;;19.10;1.00;;;;;;20650512;28;20136;-42
2023/08/04 18:25:01;;;;;;;4.07;1.85;;;18.40;1.00;;;;;;20664267;28;20370;-42
2023/08/04 18:35:02;;;;;;;3.10;1.20;;;18.30;1.00;;;;;;20645799;28;20045;-42
2023/08/04 18:45:03;;;;;;;2.50;1.60;;;18.10;1.00;;;;;;20665626;28;20038;-42
2023/08/04 18:55:04;;;;;;;2.80;1.52;;;18.00;1.00;;;;;;20657990;28;20521;-42
2023/08/04 19:05:05;;;;;;;3.85;1.70;;;18.00;1.00;;;;;;20667210;28;20137;-42
2023/08/04 19:15:07;;;;;;;4.53;2.65;;;17.90;1.00;;;;;;20658922;28;20104;-42
2023/08/04 19:25:08;;;;;;;4.80;1.92;;;17.90;1.00;;;;;;20647436;28;20052;-42
2023/08/04 19:35:09;;;;;;;5.25;2.22;;;18.00;1.00;;;;;;20660563;28;20046;-42
2023/08/04 19:45:09;;;;;;;3.65;1.70;;;17.80;1.00;;;;;;20657119;28;20674;-42
2023/08/04 19:55:10;;;;;;;4.22;2.00;;;17.70;1.00;;;;;;20661004;28;20034;-42
2023/08/04 20:05:10;;;;;;;4.57;2.00;;;17.60;1.00;;;;;;20653494;28;20053;-42
2023/08/04 20:15:11;;;;;;;8.95;2.85;;;17.50;1.00;;;;;;20642802;28;20049;-42
2023/08/04 20:25:12;;;;;;;3.80;1.97;;;17.50;1.00;;;;;;20654929;28;20054;-42
2023/08/04 20:35:12;;;;;;;5.35;1.98;;;17.50;1.00;;;;;;20648174;28;20046;-42
2023/08/04 20:45:13;;;;;;;5.10;2.35;;;17.40;1.00;;;;;;20650911;28;20061;-42
2023/08/04 20:55:13;;;;;;;3.22;2.10;;;17.20;1.00;;;;;;20648114;28;20069;-42
2023/08/04 21:05:14;;;;;;;3.13;1.80;;;17.10;1.00;;;;;;20667865;28;20421;-42
2023/08/04 21:15:14;;;;;;;5.23;2.60;;;17.10;1.00;;;;;;20673240;28;20507;-42
2023/08/04 21:25:15;;;;;;;7.78;2.28;;;17.10;1.00;;;;;;20675466;28;20488;-42
2023/08/04 21:35:16;;;;;;;5.30;2.08;;;16.90;1.00;;;;;;20680539;28;20421;-42
2023/08/04 21:45:18;;;;;;;4.13;2.38;;;16.80;1.00;;;;;;20665238;28;20053;-42
2023/08/04 21:55:19;;;;;;;5.65;2.38;;;16.70;1.00;;;;;;20671742;28;20041;-42
2023/08/04 22:05:19;;;;;;;4.20;2.15;;;16.60;1.00;;;;;;20679961;28;20034;-42
2023/08/04 22:15:21;;;;;;;6.60;2.65;;;16.30;1.00;;;;;;20685541;28;20129;-42
2023/08/04 22:25:22;;;;;;;4.90;2.30;;;16.10;8.00;;;;;;20664727;28;20474;-42
2023/08/04 22:35:22;;;;;;;4.60;2.80;;;15.90;18.60;;;;;;20651895;28;20045;-42
2023/08/04 22:45:23;;;;;;;5.50;2.92;;;15.70;23.30;;;;;;20645319;28;20274;-42
2023/08/04 22:55:24;;;;;;;7.15;3.20;;;15.60;23.30;;;;;;20655117;28;20069;-42
2023/08/04 23:05:24;;;;;;;5.47;3.58;;;15.50;23.80;;;;;;20652922;28;20046;-42
2023/08/04 23:15:25;;;;;;;5.28;4.00;;;15.30;35.40;;;;;;20652546;28;20404;-42
2023/08/04 23:25:25;;;;;;;8.02;4.72;;;15.20;42.40;;;;;;20653759;28;20061;-42
2023/08/04 23:35:26;;;;;;;7.05;4.05;;;15.10;50.80;;;;;;20672862;28;20069;-42
2023/08/04 23:45:27;;;;;;;9.50;5.30;;;15.10;56.30;;;;;;20671792;28;20042;-42
2023/08/04 23:55:27;;;;;;;9.45;5.85;;;15.10;83.20;;;;;;20664487;28;20046;-42
